Eaton, Colorado
Current Conditions -  °F | °C
As of 1:35 PM on Thursday 29 Jan 2015 (Local Time) from KGXY Reporting Station
Clear Clear  
Wind Chill:   Ceiling: Unl
Heat Index:   Visibility: 10mi
Dew Point: -6°   Wind: 9mph
Humidity: 34%   Direction: 140°SE
Pressure: 30.42"   Gusts: NA
Location:  40.53°N, 104.71°W
Report Text: KGXY 292035Z AUTO 14008KT 10SM CLR 09/M06 A3042 RMK AO1
Loading
Personal Weather Stations






























Interactive Weather Map New forecast layout! Learn more

10-Day Weather Forecast

Advertisements
Track Severe Weather on mobile